Time;durP1;ratioP1;P1;durP2;ratioP2;P2;SDS_P1;SDS_P2;PMS_P1;PMS_P2;Temp;Humidity;BMP_temperature;BMP_pressure;BME280_temperature;BME280_humidity;BME280_pressure;Samples;Min_cycle;Max_cycle;Signal;HPM_P1;HPM_P2
2022/03/25 00:02:05;;;;;;;11.52;6.80;;;;;;;;;;5019646;28;20033;-88
2022/03/25 00:04:31;;;;;;;13.73;6.80;;;;;;;;;;5019555;28;20018;-87
2022/03/25 00:06:57;;;;;;;14.02;6.82;;;;;;;;;;5019330;28;20030;-88
2022/03/25 00:09:23;;;;;;;12.38;6.63;;;;;;;;;;5019196;28;20022;-89
2022/03/25 00:11:49;;;;;;;11.88;6.07;;;;;;;;;;5019564;28;20037;-89
2022/03/25 00:14:15;;;;;;;12.55;5.68;;;;;;;;;;5019494;28;20428;-90
2022/03/25 00:16:42;;;;;;;11.30;6.32;;;;;;;;;;5019258;28;20065;-89
2022/03/25 00:19:08;;;;;;;11.98;5.63;;;;;;;;;;5019257;28;20041;-90
2022/03/25 00:21:34;;;;;;;8.90;5.13;;;;;;;;;;5019131;28;20033;-89
2022/03/25 00:24:00;;;;;;;12.57;5.97;;;;;;;;;;5018799;28;20044;-90
2022/03/25 00:26:27;;;;;;;14.50;6.50;;;;;;;;;;5019173;28;20026;-89
2022/03/25 00:28:53;;;;;;;10.73;5.03;;;;;;;;;;5019051;28;20030;-89
2022/03/25 00:31:20;;;;;;;10.00;5.75;;;;;;;;;;5051174;28;20034;-87
2022/03/25 00:33:49;;;;;;;13.20;6.07;;;;;;;;;;5019044;28;20143;-87
2022/03/25 00:36:17;;;;;;;12.38;6.05;;;;;;;;;;5018735;28;20042;-88
2022/03/25 00:38:43;;;;;;;11.52;5.78;;;;;;;;;;5050904;28;20020;-87
2022/03/25 00:41:12;;;;;;;9.88;5.57;;;;;;;;;;5018470;28;20029;-88
2022/03/25 00:43:38;;;;;;;11.85;5.82;;;;;;;;;;5018890;28;20032;-88
2022/03/25 00:46:04;;;;;;;11.25;6.35;;;;;;;;;;5050893;28;20080;-89
2022/03/25 00:48:30;;;;;;;13.63;6.15;;;;;;;;;;5050681;28;20033;-89
2022/03/25 00:50:57;;;;;;;14.02;6.30;;;;;;;;;;5018611;28;20028;-90
2022/03/25 00:53:23;;;;;;;16.90;6.43;;;;;;;;;;5050773;28;20105;-88
2022/03/25 00:55:49;;;;;;;11.88;6.38;;;;;;;;;;5018587;28;20026;-89
2022/03/25 00:58:15;;;;;;;11.65;6.35;;;;;;;;;;5018484;28;20092;-90
2022/03/25 01:00:42;;;;;;;15.18;6.78;;;;;;;;;;5018506;28;20045;-89
2022/03/25 01:03:08;;;;;;;22.08;6.72;;;;;;;;;;5018313;28;20054;-89
2022/03/25 01:05:34;;;;;;;17.75;6.97;;;;;;;;;;5050698;28;20068;-89
2022/03/25 01:08:00;;;;;;;13.85;6.65;;;;;;;;;;5018260;28;20036;-89
2022/03/25 01:10:26;;;;;;;11.95;6.60;;;;;;;;;;5018663;28;20045;-88
2022/03/25 01:12:53;;;;;;;11.52;6.50;;;;;;;;;;5018515;28;20033;-88
2022/03/25 01:15:19;;;;;;;13.20;7.22;;;;;;;;;;5018024;28;20404;-88
2022/03/25 01:17:45;;;;;;;12.80;7.00;;;;;;;;;;5050378;28;20025;-89
2022/03/25 01:20:11;;;;;;;14.50;7.88;;;;;;;;;;5017334;28;20037;-87
2022/03/25 01:22:37;;;;;;;15.20;8.00;;;;;;;;;;5018041;28;20072;-89
2022/03/25 01:25:03;;;;;;;14.40;7.53;;;;;;;;;;5018030;28;20036;-88
2022/03/25 01:27:29;;;;;;;14.73;7.35;;;;;;;;;;5049711;28;20083;-88
2022/03/25 01:29:55;;;;;;;13.52;6.95;;;;;;;;;;5017990;28;20021;-87
2022/03/25 01:32:22;;;;;;;16.40;8.48;;;;;;;;;;5017956;28;20025;-88
2022/03/25 01:34:49;;;;;;;17.75;8.63;;;;;;;;;;5017965;28;20038;-89
2022/03/25 01:37:15;;;;;;;20.77;10.18;;;;;;;;;;5017758;28;20038;-89
2022/03/25 01:39:41;;;;;;;21.40;9.20;;;;;;;;;;5017785;28;20018;-88
2022/03/25 01:42:07;;;;;;;21.92;10.38;;;;;;;;;;5017955;28;20332;-89
2022/03/25 01:44:33;;;;;;;17.77;8.55;;;;;;;;;;5016849;28;20022;-89
2022/03/25 01:47:00;;;;;;;17.13;8.60;;;;;;;;;;5017876;28;20030;-90
2022/03/25 01:49:26;;;;;;;17.10;9.25;;;;;;;;;;5018000;28;20022;-90
2022/03/25 01:52:00;;;;;;;18.05;9.65;;;;;;;;;;5017710;28;20431;-90
2022/03/25 01:54:28;;;;;;;20.33;9.60;;;;;;;;;;5021223;28;20030;-88
2022/03/25 01:56:56;;;;;;;18.25;9.40;;;;;;;;;;5022065;28;20026;-89
2022/03/25 01:59:40;;;;;;;20.45;9.82;;;;;;;;;;5054254;28;20076;-88
2022/03/25 02:02:07;;;;;;;19.10;9.18;;;;;;;;;;5021975;28;20105;-88
2022/03/25 02:04:34;;;;;;;23.65;9.90;;;;;;;;;;5021559;28;20400;-89
2022/03/25 02:07:00;;;;;;;21.33;10.27;;;;;;;;;;5021627;28;20026;-89
2022/03/25 02:09:26;;;;;;;16.60;9.23;;;;;;;;;;5021922;28;20481;-89
2022/03/25 02:11:52;;;;;;;19.77;9.77;;;;;;;;;;5021731;28;20101;-88
2022/03/25 02:14:18;;;;;;;17.45;10.15;;;;;;;;;;5021582;28;20026;-88
2022/03/25 02:16:45;;;;;;;17.30;9.30;;;;;;;;;;5021348;28;20073;-88
2022/03/25 02:19:12;;;;;;;20.02;10.73;;;;;;;;;;5021511;28;20029;-89
2022/03/25 02:21:39;;;;;;;27.35;14.02;;;;;;;;;;5021321;28;20159;-88
2022/03/25 02:24:06;;;;;;;18.95;10.90;;;;;;;;;;5020500;28;20401;-89
2022/03/25 02:26:33;;;;;;;20.30;9.82;;;;;;;;;;5020387;28;20029;-89
2022/03/25 02:29:00;;;;;;;17.77;9.82;;;;;;;;;;5021432;28;20037;-89
2022/03/25 02:31:26;;;;;;;25.10;10.98;;;;;;;;;;5021327;28;20430;-91
2022/03/25 02:34:01;;;;;;;23.05;10.55;;;;;;;;;;5021038;28;20117;-90
2022/03/25 02:36:27;;;;;;;26.90;10.93;;;;;;;;;;5020726;28;20096;-90
2022/03/25 02:38:53;;;;;;;19.83;10.15;;;;;;;;;;5021354;28;20028;-90
2022/03/25 02:41:19;;;;;;;21.75;10.07;;;;;;;;;;5020241;28;20072;-90
2022/03/25 02:43:45;;;;;;;19.85;9.90;;;;;;;;;;5020864;28;20117;-89
2022/03/25 02:46:11;;;;;;;19.65;10.18;;;;;;;;;;5021027;28;20022;-89
2022/03/25 02:48:37;;;;;;;24.42;9.30;;;;;;;;;;5019977;28;20026;-90
2022/03/25 02:51:04;;;;;;;25.88;10.77;;;;;;;;;;5020754;28;20060;-88
2022/03/25 02:53:31;;;;;;;19.20;8.90;;;;;;;;;;5020983;28;20033;-89
2022/03/25 02:55:57;;;;;;;21.92;10.07;;;;;;;;;;5052916;28;20045;-90
2022/03/25 02:58:23;;;;;;;18.65;9.45;;;;;;;;;;5020044;28;20474;-88
2022/03/25 03:00:49;;;;;;;17.80;8.90;;;;;;;;;;5020614;28;20030;-89
2022/03/25 03:03:15;;;;;;;21.70;8.63;;;;;;;;;;5052880;28;20022;-89
2022/03/25 03:05:42;;;;;;;20.48;9.45;;;;;;;;;;5052705;28;20030;-88
2022/03/25 03:08:09;;;;;;;31.20;9.18;;;;;;;;;;5020813;28;20097;-89
2022/03/25 03:10:35;;;;;;;20.08;8.60;;;;;;;;;;5020598;28;20026;-90
2022/03/25 03:13:02;;;;;;;16.02;8.98;;;;;;;;;;5020622;28;20060;-88
2022/03/25 03:15:28;;;;;;;15.60;8.27;;;;;;;;;;5020153;28;20030;-90
2022/03/25 03:17:54;;;;;;;16.63;8.10;;;;;;;;;;5020275;28;20018;-89
2022/03/25 03:20:21;;;;;;;13.32;7.80;;;;;;;;;;5020269;28;20316;-90
2022/03/25 03:22:48;;;;;;;14.55;8.13;;;;;;;;;;5020124;28;20014;-89
2022/03/25 03:25:14;;;;;;;18.92;8.40;;;;;;;;;;5020447;28;20049;-89
2022/03/25 03:27:40;;;;;;;17.40;8.15;;;;;;;;;;5020170;28;20422;-89
2022/03/25 03:30:08;;;;;;;13.68;6.97;;;;;;;;;;5020184;28;20236;-91
2022/03/25 03:32:35;;;;;;;14.48;7.32;;;;;;;;;;5020044;28;20036;-91
2022/03/25 03:35:01;;;;;;;24.73;12.75;;;;;;;;;;5020084;28;20025;-91
2022/03/25 03:37:27;;;;;;;25.52;12.98;;;;;;;;;;5019023;28;20034;-90
2022/03/25 03:39:53;;;;;;;20.05;9.93;;;;;;;;;;5019068;28;20365;-90
2022/03/25 03:42:19;;;;;;;16.42;8.75;;;;;;;;;;5019880;28;20022;-90
2022/03/25 03:44:45;;;;;;;14.70;8.15;;;;;;;;;;5051931;28;20080;-90
2022/03/25 03:47:12;;;;;;;16.75;8.18;;;;;;;;;;5019888;28;20038;-90
2022/03/25 03:49:38;;;;;;;14.30;7.65;;;;;;;;;;5019502;28;20018;-91
2022/03/25 03:52:04;;;;;;;16.80;7.60;;;;;;;;;;5051750;28;20022;-92
2022/03/25 03:54:33;;;;;;;15.40;7.80;;;;;;;;;;5019876;28;20018;-93
2022/03/25 03:57:00;;;;;;;15.82;8.40;;;;;;;;;;5051776;28;20026;-91
2022/03/25 03:59:26;;;;;;;17.55;8.23;;;;;;;;;;5019556;28;20034;-91
2022/03/25 04:01:52;;;;;;;20.13;8.82;;;;;;;;;;5019519;28;20018;-91
2022/03/25 04:04:18;;;;;;;15.60;7.93;;;;;;;;;;5051537;28;20059;-91
2022/03/25 04:06:45;;;;;;;14.40;8.38;;;;;;;;;;5019601;28;20034;-91
2022/03/25 04:09:11;;;;;;;15.43;8.23;;;;;;;;;;5019515;28;20022;-90
2022/03/25 04:11:37;;;;;;;18.08;8.57;;;;;;;;;;5019423;28;20454;-91
2022/03/25 04:14:03;;;;;;;18.65;10.07;;;;;;;;;;5019339;28;20484;-90
2022/03/25 04:16:30;;;;;;;14.00;9.48;;;;;;;;;;5018600;28;20030;-90
2022/03/25 04:18:59;;;;;;;14.80;8.45;;;;;;;;;;5051442;28;20065;-90
2022/03/25 04:21:25;;;;;;;16.33;8.10;;;;;;;;;;5018940;28;20049;-91
2022/03/25 04:23:51;;;;;;;19.02;7.18;;;;;;;;;;5051325;28;20018;-90
2022/03/25 04:26:17;;;;;;;12.15;7.57;;;;;;;;;;5051335;28;20037;-90
2022/03/25 04:28:43;;;;;;;17.70;8.05;;;;;;;;;;5050965;28;20145;-90
2022/03/25 04:31:09;;;;;;;15.18;7.88;;;;;;;;;;5051017;28;20076;-90
2022/03/25 04:33:36;;;;;;;13.52;7.45;;;;;;;;;;5024401;28;20053;-90
2022/03/25 04:36:03;;;;;;;19.05;7.55;;;;;;;;;;5031750;28;20049;-89
2022/03/25 04:38:29;;;;;;;13.73;7.40;;;;;;;;;;5037621;28;20034;-90
2022/03/25 04:40:56;;;;;;;16.70;7.72;;;;;;;;;;5037705;28;20025;-90
2022/03/25 04:43:23;;;;;;;14.10;7.22;;;;;;;;;;5037127;28;20017;-89
2022/03/25 04:46:09;;;;;;;13.90;7.50;;;;;;;;;;5038297;28;20061;-90
2022/03/25 04:48:36;;;;;;;15.80;7.30;;;;;;;;;;5038442;28;20026;-89
2022/03/25 04:51:03;;;;;;;16.65;7.53;;;;;;;;;;5038427;28;20022;-89
2022/03/25 04:53:29;;;;;;;21.05;8.20;;;;;;;;;;5036740;28;20323;-89
2022/03/25 04:55:55;;;;;;;17.58;7.50;;;;;;;;;;5030831;28;20025;-89
2022/03/25 04:58:21;;;;;;;16.15;7.70;;;;;;;;;;5017556;28;20409;-88
2022/03/25 05:00:48;;;;;;;19.08;8.70;;;;;;;;;;5024475;28;20032;-87
2022/03/25 05:03:14;;;;;;;14.65;7.85;;;;;;;;;;5038156;28;20033;-88
2022/03/25 05:05:42;;;;;;;27.80;13.13;;;;;;;;;;5036637;28;20442;-87
2022/03/25 05:08:11;;;;;;;23.75;12.75;;;;;;;;;;5038474;28;20434;-89
2022/03/25 05:10:41;;;;;;;20.85;11.20;;;;;;;;;;5025514;28;20044;-88
2022/03/25 05:13:08;;;;;;;22.00;11.57;;;;;;;;;;5018293;28;20029;-90
2022/03/25 05:15:35;;;;;;;23.52;11.20;;;;;;;;;;5029218;28;20037;-88
2022/03/25 05:18:01;;;;;;;28.42;12.15;;;;;;;;;;5040758;28;20022;-89
2022/03/25 05:20:27;;;;;;;24.35;13.73;;;;;;;;;;5036544;28;20085;-91
2022/03/25 05:22:53;;;;;;;29.02;14.00;;;;;;;;;;5028410;28;20049;-91
2022/03/25 05:25:20;;;;;;;23.00;12.50;;;;;;;;;;5018064;28;20022;-89
2022/03/25 05:27:50;;;;;;;22.25;11.63;;;;;;;;;;5017774;28;20413;-90
2022/03/25 05:30:18;;;;;;;25.27;14.07;;;;;;;;;;5019320;28;20029;-90
2022/03/25 05:32:45;;;;;;;25.65;15.45;;;;;;;;;;5017936;28;20037;-89
2022/03/25 05:35:11;;;;;;;28.70;16.17;;;;;;;;;;5017700;28;20030;-89
2022/03/25 05:37:38;;;;;;;27.63;15.98;;;;;;;;;;5018068;28;20022;-89
2022/03/25 05:40:05;;;;;;;32.97;15.48;;;;;;;;;;5017974;28;20404;-89
2022/03/25 05:42:31;;;;;;;32.05;16.02;;;;;;;;;;5017889;28;20033;-88
2022/03/25 05:44:57;;;;;;;31.17;16.88;;;;;;;;;;5017086;28;20030;-88
2022/03/25 05:47:23;;;;;;;29.80;16.50;;;;;;;;;;5017024;28;20026;-88
2022/03/25 05:49:49;;;;;;;26.23;14.57;;;;;;;;;;5017703;28;20022;-90
2022/03/25 05:52:15;;;;;;;30.08;14.02;;;;;;;;;;5018094;28;20037;-89
2022/03/25 05:54:41;;;;;;;26.88;14.60;;;;;;;;;;5016971;28;20048;-89
2022/03/25 05:57:07;;;;;;;28.73;15.60;;;;;;;;;;5017750;28;20064;-89
2022/03/25 05:59:33;;;;;;;35.03;16.38;;;;;;;;;;5017777;28;20420;-89
2022/03/25 06:01:59;;;;;;;36.17;17.13;;;;;;;;;;5017560;28;20071;-89
2022/03/25 06:04:25;;;;;;;37.97;18.67;;;;;;;;;;5017276;28;20034;-90
2022/03/25 06:06:52;;;;;;;54.35;24.25;;;;;;;;;;5018025;28;20022;-89
2022/03/25 06:09:18;;;;;;;38.88;19.17;;;;;;;;;;5017760;28;20049;-89
2022/03/25 06:11:44;;;;;;;37.17;16.35;;;;;;;;;;5017746;28;20040;-88
2022/03/25 06:14:10;;;;;;;30.10;16.13;;;;;;;;;;5027899;28;20024;-89
2022/03/25 06:16:36;;;;;;;32.65;16.38;;;;;;;;;;5056881;28;20395;-89
2022/03/25 06:19:02;;;;;;;34.22;17.02;;;;;;;;;;5057224;28;20426;-89
2022/03/25 06:21:28;;;;;;;35.90;16.60;;;;;;;;;;5057134;28;20040;-89
2022/03/25 06:23:54;;;;;;;23.85;12.68;;;;;;;;;;5056360;28;20029;-89
2022/03/25 06:26:21;;;;;;;24.75;11.23;;;;;;;;;;5057227;28;20108;-89
2022/03/25 06:28:47;;;;;;;23.77;11.23;;;;;;;;;;5057388;28;20032;-89
2022/03/25 06:31:13;;;;;;;19.00;11.30;;;;;;;;;;5056157;28;20021;-89
2022/03/25 06:33:41;;;;;;;25.83;11.32;;;;;;;;;;5056866;28;20116;-90
2022/03/25 06:36:13;;;;;;;27.70;10.30;;;;;;;;;;5056721;28;20041;-88
2022/03/25 06:38:40;;;;;;;27.35;13.40;;;;;;;;;;5056735;28;20488;-90
2022/03/25 06:41:06;;;;;;;25.23;12.20;;;;;;;;;;5061071;28;20033;-90
2022/03/25 06:43:33;;;;;;;35.92;15.43;;;;;;;;;;5060912;28;20029;-89
2022/03/25 06:45:59;;;;;;;32.25;12.73;;;;;;;;;;5060754;28;20021;-89
2022/03/25 06:48:25;;;;;;;25.25;10.30;;;;;;;;;;5060774;28;20296;-89
2022/03/25 06:50:51;;;;;;;21.38;11.38;;;;;;;;;;5059873;28;20021;-88
2022/03/25 06:53:18;;;;;;;23.08;12.00;;;;;;;;;;5060685;28;20028;-90
2022/03/25 06:55:44;;;;;;;20.10;10.48;;;;;;;;;;5059572;28;20055;-89
2022/03/25 06:58:11;;;;;;;16.33;9.73;;;;;;;;;;5060542;28;20314;-90
2022/03/25 07:00:38;;;;;;;19.30;9.13;;;;;;;;;;5059468;28;20075;-90
2022/03/25 07:03:04;;;;;;;19.30;10.15;;;;;;;;;;5060293;28;20063;-89
2022/03/25 07:05:31;;;;;;;14.57;8.60;;;;;;;;;;5060467;28;20075;-89
2022/03/25 07:07:58;;;;;;;29.80;10.50;;;;;;;;;;5060590;28;20033;-89
2022/03/25 07:10:26;;;;;;;19.05;9.38;;;;;;;;;;5060153;28;20372;-89
2022/03/25 07:12:53;;;;;;;24.65;9.77;;;;;;;;;;5059494;28;20560;-89
2022/03/25 07:15:20;;;;;;;21.27;10.30;;;;;;;;;;5059965;28;20438;-90
2022/03/25 07:17:46;;;;;;;18.15;9.57;;;;;;;;;;5060172;28;20047;-89
2022/03/25 07:20:14;;;;;;;15.85;9.63;;;;;;;;;;5059885;28;20021;-89
2022/03/25 07:22:44;;;;;;;19.13;10.43;;;;;;;;;;5059846;28;20425;-89
2022/03/25 07:25:14;;;;;;;19.60;10.20;;;;;;;;;;5059897;28;20116;-89
2022/03/25 07:27:40;;;;;;;21.65;9.88;;;;;;;;;;5059078;28;20024;-88
2022/03/25 07:30:07;;;;;;;22.00;10.38;;;;;;;;;;5059802;28;20053;-88
2022/03/25 07:32:33;;;;;;;19.63;10.80;;;;;;;;;;5059695;28;20395;-88
2022/03/25 07:34:59;;;;;;;20.48;10.05;;;;;;;;;;5058515;28;20116;-88
2022/03/25 07:37:25;;;;;;;20.02;10.48;;;;;;;;;;5059878;28;20074;-88
2022/03/25 07:39:51;;;;;;;24.95;10.85;;;;;;;;;;5059692;28;20063;-88
2022/03/25 07:42:17;;;;;;;20.52;10.40;;;;;;;;;;5059714;28;20067;-88
2022/03/25 07:44:44;;;;;;;23.50;11.35;;;;;;;;;;5058740;28;20052;-88
2022/03/25 07:47:11;;;;;;;18.05;10.75;;;;;;;;;;5059548;28;20028;-88
2022/03/25 07:49:39;;;;;;;22.65;10.52;;;;;;;;;;5059735;28;20137;-88
2022/03/25 07:52:06;;;;;;;21.10;10.57;;;;;;;;;;5058513;28;20430;-89
2022/03/25 07:54:32;;;;;;;20.02;10.68;;;;;;;;;;5059441;28;20045;-88
2022/03/25 07:56:58;;;;;;;25.40;10.52;;;;;;;;;;5058492;28;20067;-88
2022/03/25 07:59:28;;;;;;;19.95;10.50;;;;;;;;;;5059257;28;20029;-88
2022/03/25 08:01:54;;;;;;;21.23;10.95;;;;;;;;;;5059183;28;20028;-88
2022/03/25 08:04:23;;;;;;;18.35;11.10;;;;;;;;;;5059878;28;20028;-87
2022/03/25 08:06:50;;;;;;;22.00;11.40;;;;;;;;;;5058324;28;20033;-88
2022/03/25 08:09:16;;;;;;;21.90;11.35;;;;;;;;;;5057995;28;20065;-88
2022/03/25 08:11:42;;;;;;;18.73;10.27;;;;;;;;;;5058907;28;20462;-87
2022/03/25 08:14:08;;;;;;;16.30;10.07;;;;;;;;;;5059015;28;20322;-88
2022/03/25 08:16:35;;;;;;;18.17;10.10;;;;;;;;;;5058859;28;20383;-88
2022/03/25 08:19:01;;;;;;;20.35;10.35;;;;;;;;;;5059145;28;20048;-88
2022/03/25 08:21:27;;;;;;;21.33;9.52;;;;;;;;;;5058144;28;20040;-88
2022/03/25 08:29:22;;;;;;;17.70;9.90;;;;;;;;;;5059172;28;20390;-88
2022/03/25 08:31:48;;;;;;;20.25;11.40;;;;;;;;;;5057592;28;20040;-88
2022/03/25 08:34:15;;;;;;;16.30;10.23;;;;;;;;;;5057780;28;20033;-88
2022/03/25 08:36:45;;;;;;;21.40;11.32;;;;;;;;;;5058546;28;20049;-88
2022/03/25 08:39:12;;;;;;;20.52;11.23;;;;;;;;;;5058648;28;20041;-88
2022/03/25 08:41:38;;;;;;;18.73;11.02;;;;;;;;;;5057696;28;20032;-87
2022/03/25 08:44:05;;;;;;;20.58;10.35;;;;;;;;;;5057884;28;20470;-87
2022/03/25 08:46:32;;;;;;;20.05;11.55;;;;;;;;;;5057529;28;20025;-88
2022/03/25 08:48:58;;;;;;;19.45;11.10;;;;;;;;;;5058212;28;20033;-88
2022/03/25 08:51:24;;;;;;;18.13;10.43;;;;;;;;;;5057796;28;20041;-88
2022/03/25 08:53:50;;;;;;;19.33;10.50;;;;;;;;;;5057284;28;20067;-87
2022/03/25 08:56:16;;;;;;;13.65;9.35;;;;;;;;;;5057525;28;20041;-88
2022/03/25 08:58:42;;;;;;;17.67;8.98;;;;;;;;;;5058222;28;20033;-89
2022/03/25 09:01:08;;;;;;;16.90;9.70;;;;;;;;;;5058110;28;20045;-88
2022/03/25 09:03:34;;;;;;;18.02;8.93;;;;;;;;;;5057276;28;20461;-88
2022/03/25 09:06:00;;;;;;;15.50;9.43;;;;;;;;;;5056815;28;20048;-88
2022/03/25 09:08:26;;;;;;;19.95;9.65;;;;;;;;;;5058131;28;20112;-88
2022/03/25 09:10:53;;;;;;;20.05;10.05;;;;;;;;;;5057951;28;20024;-88
2022/03/25 09:13:19;;;;;;;17.58;10.05;;;;;;;;;;5057734;28;20021;-88
2022/03/25 09:15:46;;;;;;;17.60;9.65;;;;;;;;;;5057843;28;20388;-88
2022/03/25 09:18:12;;;;;;;25.40;10.77;;;;;;;;;;5058012;28;20021;-88
2022/03/25 09:20:39;;;;;;;21.98;10.45;;;;;;;;;;5055401;28;20025;-88
2022/03/25 09:23:05;;;;;;;17.40;9.43;;;;;;;;;;5048048;28;20148;-88
2022/03/25 09:25:32;;;;;;;19.92;9.85;;;;;;;;;;5051655;28;20036;-88
2022/03/25 09:27:58;;;;;;;14.88;9.32;;;;;;;;;;5057632;28;20078;-88
2022/03/25 09:30:24;;;;;;;19.02;9.95;;;;;;;;;;5057877;28;20108;-88
2022/03/25 09:32:50;;;;;;;16.27;8.50;;;;;;;;;;5056938;28;20411;-88
2022/03/25 09:35:16;;;;;;;21.98;9.18;;;;;;;;;;5057519;28;20328;-88
2022/03/25 09:37:43;;;;;;;16.30;8.88;;;;;;;;;;5056952;28;20087;-87
2022/03/25 09:40:12;;;;;;;20.95;9.40;;;;;;;;;;5057937;28;20027;-87
2022/03/25 09:42:39;;;;;;;16.33;9.18;;;;;;;;;;5057423;28;20036;-89
2022/03/25 09:45:05;;;;;;;16.25;8.93;;;;;;;;;;5057419;28;20060;-87
2022/03/25 09:47:32;;;;;;;15.90;9.20;;;;;;;;;;5057418;28;20013;-87
2022/03/25 09:49:58;;;;;;;17.17;9.38;;;;;;;;;;5057703;28;20045;-91
2022/03/25 09:52:26;;;;;;;15.50;8.73;;;;;;;;;;5056419;28;20102;-89
2022/03/25 09:54:52;;;;;;;17.25;9.57;;;;;;;;;;5057796;28;20021;-88
2022/03/25 09:57:19;;;;;;;13.85;8.23;;;;;;;;;;5057649;28;20045;-88
2022/03/25 09:59:45;;;;;;;17.73;9.05;;;;;;;;;;5057174;28;20427;-88
2022/03/25 10:02:11;;;;;;;18.02;9.25;;;;;;;;;;5056361;28;20034;-88
2022/03/25 10:04:41;;;;;;;18.55;9.05;;;;;;;;;;5056325;28;20327;-89
2022/03/25 10:07:18;;;;;;;14.05;8.98;;;;;;;;;;5057429;28;20029;-88
2022/03/25 10:09:44;;;;;;;16.42;9.68;;;;;;;;;;5057220;28;20021;-89
2022/03/25 10:12:21;;;;;;;16.05;9.50;;;;;;;;;;5057305;28;20356;-88
2022/03/25 10:15:26;;;;;;;19.08;9.05;;;;;;;;;;5059753;28;20033;-88
2022/03/25 10:17:59;;;;;;;28.23;11.75;;;;;;;;;;5039630;28;20049;-88
2022/03/25 10:20:26;;;;;;;20.42;10.20;;;;;;;;;;5039492;28;20029;-89
2022/03/25 10:23:10;;;;;;;17.88;9.50;;;;;;;;;;5039447;28;20202;-89
2022/03/25 10:25:37;;;;;;;21.58;10.20;;;;;;;;;;5022939;28;20021;-88
2022/03/25 10:28:04;;;;;;;18.95;9.52;;;;;;;;;;5039309;28;20045;-87
2022/03/25 10:30:38;;;;;;;16.45;10.18;;;;;;;;;;5039367;28;20025;-88
2022/03/25 10:33:20;;;;;;;17.17;9.25;;;;;;;;;;5039534;28;20018;-88
2022/03/25 10:35:46;;;;;;;;;;;;;;;;;;5039562;28;20125;-88
2022/03/25 10:38:12;;;;;;;18.60;9.07;;;;;;;;;;5022866;28;19963;-88
2022/03/25 10:40:49;;;;;;;31.15;15.70;;;;;;;;;;5038980;28;20049;-87
2022/03/25 10:43:15;;;;;;;14.20;9.35;;;;;;;;;;5039202;28;20407;-87
2022/03/25 10:45:41;;;;;;;19.42;10.02;;;;;;;;;;5022653;28;20029;-87
2022/03/25 10:48:13;;;;;;;23.55;10.45;;;;;;;;;;5023134;28;20128;-90
2022/03/25 10:50:39;;;;;;;;;;;;;;;;;;5039845;28;20029;-88
2022/03/25 10:53:11;;;;;;;16.23;10.40;;;;;;;;;;5039183;28;19905;-88
2022/03/25 10:55:37;;;;;;;;;;;;;;;;;;5059016;28;20078;-88
2022/03/25 10:58:08;;;;;;;15.18;9.93;;;;;;;;;;5059482;28;19916;-89
2022/03/25 11:00:34;;;;;;;16.75;9.45;;;;;;;;;;5060372;28;20040;-88
2022/03/25 11:03:03;;;;;;;20.60;9.93;;;;;;;;;;5060428;28;20021;-87
2022/03/25 11:05:29;;;;;;;18.35;10.60;;;;;;;;;;5060421;28;20031;-87
2022/03/25 11:07:56;;;;;;;15.65;9.65;;;;;;;;;;5060346;28;20119;-88
2022/03/25 11:10:22;;;;;;;18.13;9.93;;;;;;;;;;5060650;28;20033;-88
2022/03/25 11:12:49;;;;;;;13.60;8.70;;;;;;;;;;5060296;28;20045;-88
2022/03/25 11:15:16;;;;;;;13.90;8.70;;;;;;;;;;5060097;28;20025;-88
2022/03/25 11:17:43;;;;;;;14.18;8.65;;;;;;;;;;5060346;28;20067;-88
2022/03/25 11:20:11;;;;;;;22.92;9.23;;;;;;;;;;5060121;28;20052;-88
2022/03/25 11:22:50;;;;;;;21.08;9.68;;;;;;;;;;5060219;28;20041;-88
2022/03/25 11:25:18;;;;;;;24.73;12.45;;;;;;;;;;5058908;28;20055;-88
2022/03/25 11:27:50;;;;;;;16.20;9.85;;;;;;;;;;5059465;28;20025;-88
2022/03/25 11:30:16;;;;;;;;;;;;;;;;;;5060178;28;20021;-89
2022/03/25 11:32:48;;;;;;;21.20;10.02;;;;;;;;;;5060270;28;19908;-89
2022/03/25 11:35:21;;;;;;;17.00;8.88;;;;;;;;;;5058903;28;20115;-89
2022/03/25 11:37:47;;;;;;;16.88;9.65;;;;;;;;;;5059712;28;20025;-89
2022/03/25 11:40:20;;;;;;;18.23;9.05;;;;;;;;;;5059833;28;20063;-88
2022/03/25 11:42:48;;;;;;;24.00;10.23;;;;;;;;;;5059945;28;20048;-88
2022/03/25 11:45:21;;;;;;;19.38;10.70;;;;;;;;;;5058758;28;20021;-88
2022/03/25 11:48:03;;;;;;;19.30;10.05;;;;;;;;;;5059415;28;20070;-89
2022/03/25 11:50:29;;;;;;;;;;;;;;;;;;5060010;28;20036;-89
2022/03/25 11:52:55;;;;;;;17.90;10.80;;;;;;;;;;5059553;28;19905;-88
2022/03/25 11:55:22;;;;;;;15.25;9.35;;;;;;;;;;5059489;28;20025;-89
2022/03/25 11:57:48;;;;;;;23.02;11.32;;;;;;;;;;5058389;28;20119;-88
2022/03/25 12:00:23;;;;;;;21.17;9.55;;;;;;;;;;5059006;28;20043;-90
2022/03/25 12:03:02;;;;;;;27.73;13.23;;;;;;;;;;5059548;28;20025;-88
2022/03/25 12:05:34;;;;;;;17.70;10.45;;;;;;;;;;5059323;28;20051;-88
2022/03/25 12:08:18;;;;;;;22.45;14.52;;;;;;;;;;5058947;28;20036;-87
2022/03/25 12:10:45;;;;;;;17.33;10.38;;;;;;;;;;5058427;28;20033;-88
2022/03/25 12:13:11;;;;;;;21.45;10.60;;;;;;;;;;5059177;28;20423;-89
2022/03/25 12:15:41;;;;;;;17.25;10.45;;;;;;;;;;5058219;28;20227;-89
2022/03/25 12:18:38;;;;;;;15.30;10.27;;;;;;;;;;5059065;28;20372;-87
2022/03/25 12:21:04;;;;;;;18.75;10.48;;;;;;;;;;5058960;28;20021;-88
2022/03/25 12:23:30;;;;;;;17.13;8.77;;;;;;;;;;5057969;28;20051;-88
2022/03/25 12:25:56;;;;;;;15.05;9.00;;;;;;;;;;5058940;28;20029;-88
2022/03/25 12:28:25;;;;;;;19.20;9.85;;;;;;;;;;5057759;28;20040;-88
2022/03/25 12:30:52;;;;;;;17.77;8.68;;;;;;;;;;5058779;28;20025;-88
2022/03/25 12:33:19;;;;;;;17.20;9.27;;;;;;;;;;5059006;28;20108;-88
2022/03/25 12:35:45;;;;;;;36.90;9.55;;;;;;;;;;5058531;28;20041;-88
2022/03/25 12:38:20;;;;;;;14.65;9.43;;;;;;;;;;5058315;28;20027;-88
2022/03/25 12:40:48;;;;;;;20.05;9.05;;;;;;;;;;5057785;28;20047;-87
2022/03/25 12:43:14;;;;;;;19.80;11.20;;;;;;;;;;5058360;28;20021;-88
2022/03/25 12:45:42;;;;;;;19.50;10.07;;;;;;;;;;5058658;28;20055;-87
2022/03/25 12:48:09;;;;;;;14.63;8.77;;;;;;;;;;5058547;28;20025;-88
2022/03/25 12:50:36;;;;;;;15.52;8.75;;;;;;;;;;5057526;28;20037;-87
2022/03/25 12:53:02;;;;;;;16.60;8.52;;;;;;;;;;5058264;28;20025;-88
2022/03/25 12:55:29;;;;;;;16.27;9.68;;;;;;;;;;5058268;28;20025;-87
2022/03/25 12:58:03;;;;;;;18.05;9.02;;;;;;;;;;5058431;28;20025;-87
2022/03/25 13:00:38;;;;;;;18.17;10.10;;;;;;;;;;5058202;28;20017;-88
2022/03/25 13:03:05;;;;;;;16.30;9.30;;;;;;;;;;5058216;28;20021;-87
2022/03/25 13:05:31;;;;;;;17.08;9.20;;;;;;;;;;5057199;28;20542;-87
2022/03/25 13:07:57;;;;;;;14.57;8.20;;;;;;;;;;5058504;28;20025;-89
2022/03/25 13:10:24;;;;;;;20.77;8.27;;;;;;;;;;5057868;28;20045;-86
2022/03/25 13:12:52;;;;;;;17.27;9.05;;;;;;;;;;5057998;28;20035;-92
2022/03/25 13:15:18;;;;;;;16.70;10.48;;;;;;;;;;5058211;28;20056;-88
2022/03/25 13:17:46;;;;;;;17.40;9.40;;;;;;;;;;5058079;28;20032;-89
2022/03/25 13:20:23;;;;;;;20.92;13.27;;;;;;;;;;5057174;28;20013;-90
2022/03/25 13:23:06;;;;;;;16.95;9.93;;;;;;;;;;5056879;28;20442;-86
2022/03/25 13:25:36;;;;;;;18.98;9.80;;;;;;;;;;5058136;28;20025;-88
2022/03/25 13:28:16;;;;;;;17.35;9.70;;;;;;;;;;5057726;28;20056;-88
2022/03/25 13:31:19;;;;;;;14.50;9.13;;;;;;;;;;5058007;28;20083;-88
2022/03/25 13:33:45;;;;;;;15.35;9.57;;;;;;;;;;5057695;28;20043;-88
2022/03/25 13:36:12;;;;;;;16.98;9.57;;;;;;;;;;5047496;28;20045;-88
2022/03/25 13:38:38;;;;;;;17.40;10.43;;;;;;;;;;5037848;28;20104;-88
2022/03/25 13:41:12;;;;;;;20.80;9.80;;;;;;;;;;5037897;28;20021;-88
2022/03/25 13:43:41;;;;;;;19.02;8.80;;;;;;;;;;5037523;28;20029;-87
2022/03/25 13:46:29;;;;;;;16.77;8.68;;;;;;;;;;5037479;28;20079;-88
2022/03/25 13:49:03;;;;;;;14.38;9.13;;;;;;;;;;5036724;28;20029;-87
2022/03/25 13:51:34;;;;;;;15.02;9.20;;;;;;;;;;5037725;28;20056;-87
2022/03/25 13:54:00;;;;;;;17.10;10.05;;;;;;;;;;5037300;28;20033;-87
2022/03/25 13:56:35;;;;;;;14.77;9.25;;;;;;;;;;5037313;28;20052;-87
2022/03/25 13:59:01;;;;;;;22.75;12.50;;;;;;;;;;5037744;28;20026;-87
2022/03/25 14:01:32;;;;;;;18.25;11.48;;;;;;;;;;5037727;28;20474;-88
2022/03/25 14:04:10;;;;;;;22.42;12.80;;;;;;;;;;5053157;28;20404;-88
2022/03/25 14:06:39;;;;;;;16.88;10.18;;;;;;;;;;5053135;28;20025;-88
2022/03/25 14:09:07;;;;;;;20.52;10.85;;;;;;;;;;5052895;28;20438;-87
2022/03/25 14:11:34;;;;;;;25.75;12.20;;;;;;;;;;5053314;28;20067;-88
2022/03/25 14:14:01;;;;;;;20.45;12.43;;;;;;;;;;5037348;28;20335;-88
2022/03/25 14:16:31;;;;;;;25.45;13.75;;;;;;;;;;5037456;28;20046;-88
2022/03/25 14:18:58;;;;;;;33.33;17.42;;;;;;;;;;5053061;28;20025;-88
2022/03/25 14:21:25;;;;;;;16.50;9.98;;;;;;;;;;5037170;28;20060;-89
2022/03/25 14:24:30;;;;;;;18.60;9.23;;;;;;;;;;5037061;28;20033;-89
2022/03/25 14:26:37;;;;;;;21.58;9.93;;;;;;;;;;5037362;28;20026;-89
2022/03/25 14:29:05;;;;;;;14.88;9.25;;;;;;;;;;5036248;28;20029;-90
2022/03/25 14:31:33;;;;;;;17.27;9.00;;;;;;;;;;5036975;28;20029;-89
2022/03/25 14:33:59;;;;;;;17.63;8.57;;;;;;;;;;5037214;28;20104;-88
2022/03/25 14:36:25;;;;;;;15.25;8.45;;;;;;;;;;5036890;28;20049;-89